Main page
METAR-TAF:

METAR-TAF

Airports :

Edwards County Airport

Rocksprings, Texas, United States

latitude: 29-56-48N, longitude: 100-10-25W, elevation: 2371 ft

Current weather observation

The report was made 16 minutes ago, at 13:35 UTC
Wind 15 mph from the South/Southeast with gusts up to 23 mph
Temperature 77°F
Humidity 74%
Pressure 29.92 in. Hg
Visibility: 10 miles
Few clouds at a height of 1600 ft
Overcast at a height of 2900 ft

METAR: KECU 171335Z AUTO 16013G20KT 10SM FEW016 OVC029 25/20 A2992 RMK AO2

Time: 08:51 (13:51 UTC)


TAF: missing

Weather observations and forecasts of more than 4000 airports (METAR and TAF reports).

The available stations are represented by yellow and red dots on the map.

Hover mouse over dot to see the name of the station.

Then click to see weather observations and forecasts.

To change the map : click on the green buttons with a black cross to zoom in, on the green button with a dash to zoom out, or on the green arrows for adjacent maps.


METAR-TAF: